Time;durP1;ratioP1;P1;durP2;ratioP2;P2;SDS_P1;SDS_P2;PMS_P1;PMS_P2;Temp;Humidity;BMP_temperature;BMP_pressure;BME280_temperature;BME280_humidity;BME280_pressure;Samples;Min_cycle;Max_cycle;Signal;HPM_P1;HPM_P2
2023/04/22 00:01:08;;;;;;;;;;;;;;;;;;5051704;28;4969;-63
2023/04/22 00:03:34;;;;;;;;;;;;;;;;;;5050950;28;4573;-63
2023/04/22 00:05:59;;;;;;;;;;;;;;;;;;5049503;28;4825;-64
2023/04/22 00:08:24;;;;;;;;;;;;;;;;;;5049014;28;4648;-64
2023/04/22 00:10:50;;;;;;;;;;;;;;;;;;5051347;28;1155;-65
2023/04/22 00:13:15;;;;;;;;;;;;;;;;;;5076943;28;5501;-64
2023/04/22 00:15:40;;;;;;;;;;;;;;;;;;5062805;28;4492;-63
2023/04/22 00:18:12;;;;;;;;;;;;;;;;;;5056138;28;4940;-64
2023/04/22 00:20:38;;;;;;;;;;;;;;;;;;5058394;28;4462;-63
2023/04/22 00:23:03;;;;;;;;;;;;;;;;;;5067103;28;1062;-64
2023/04/22 00:25:28;;;;;;;;;;;;;;;;;;5055552;28;5075;-63
2023/04/22 00:27:53;;;;;;;;;;;;;;;;;;5053655;28;5022;-63
2023/04/22 00:30:19;;;;;;;;;;;;;;;;;;5050214;28;4534;-63
2023/04/22 00:32:44;;;;;;;;;;;;;;;;;;5051907;28;4791;-64
2023/04/22 00:35:09;;;;;;;;;;;;;;;;;;5060325;28;1123;-63
2023/04/22 00:37:35;;;;;;;;;;;;;;;;;;5059976;28;5124;-64
2023/04/22 00:40:00;;;;;;;;;;;;;;;;;;5054449;28;4428;-64
2023/04/22 00:42:26;;;;;;;;;;;;;;;;;;5054536;28;4424;-63
2023/04/22 00:44:51;;;;;;;;;;;;;;;;;;5053067;28;4515;-65
2023/04/22 00:47:16;;;;;;;;;;;;;;;;;;5052375;28;1450;-66
2023/04/22 00:49:42;;;;;;;;;;;;;;;;;;5051390;28;4509;-64
2023/04/22 00:52:07;;;;;;;;;;;;;;;;;;5047685;28;4589;-66
2023/04/22 00:54:33;;;;;;;;;;;;;;;;;;5048703;28;4658;-66
2023/04/22 00:56:58;;;;;;;;;;;;;;;;;;5033210;28;4884;-66
2023/04/22 00:59:23;;;;;;;;;;;;;;;;;;5045313;28;4935;-64
2023/04/22 01:01:49;;;;;;;;;;;;;;;;;;5046321;28;4449;-64
2023/04/22 01:04:14;;;;;;;;;;;;;;;;;;5049729;28;4465;-63
2023/04/22 01:06:40;;;;;;;;;;;;;;;;;;5051551;28;4624;-64
2023/04/22 01:09:05;;;;;;;;;;;;;;;;;;5048689;28;4461;-65
2023/04/22 01:11:31;;;;;;;;;;;;;;;;;;5047912;28;4958;-64
2023/04/22 01:13:56;;;;;;;;;;;;;;;;;;5044499;28;1190;-65
2023/04/22 01:16:21;;;;;;;;;;;;;;;;;;5068202;28;5057;-64
2023/04/22 01:18:46;;;;;;;;;;;;;;;;;;5059256;28;4484;-65
2023/04/22 01:21:12;;;;;;;;;;;;;;;;;;5059184;28;4493;-64
2023/04/22 01:23:37;;;;;;;;;;;;;;;;;;5050139;28;4646;-63
2023/04/22 01:26:02;;;;;;;;;;;;;;;;;;5064313;28;1111;-64
2023/04/22 01:28:28;;;;;;;;;;;;;;;;;;5046054;28;4440;-65
2023/04/22 01:30:53;;;;;;;;;;;;;;;;;;5075799;28;4446;-65
2023/04/22 01:33:18;;;;;;;;;;;;;;;;;;5058146;28;5433;-63
2023/04/22 01:35:44;;;;;;;;;;;;;;;;;;5062802;27;4600;-63
2023/04/22 01:38:09;;;;;;;;;;;;;;;;;;5060553;28;1978;-63
2023/04/22 01:40:35;;;;;;;;;;;;;;;;;;5064407;28;4425;-64
2023/04/22 01:43:00;;;;;;;;;;;;;;;;;;5033210;28;5348;-64
2023/04/22 01:45:26;;;;;;;;;;;;;;;;;;5061582;28;4659;-63
2023/04/22 01:47:51;;;;;;;;;;;;;;;;;;5060854;28;4582;-65
2023/04/22 01:50:16;;;;;;;;;;;;;;;;;;5059976;28;1200;-64
2023/04/22 01:52:42;;;;;;;;;;;;;;;;;;5047220;28;4863;-65
2023/04/22 01:55:07;;;;;;;;;;;;;;;;;;5059342;28;4599;-64
2023/04/22 01:57:32;;;;;;;;;;;;;;;;;;5056412;28;4639;-64
2023/04/22 01:59:58;;;;;;;;;;;;;;;;;;5059703;28;4924;-64
2023/04/22 02:02:23;;;;;;;;;;;;;;;;;;5055112;28;1156;-64
2023/04/22 02:04:48;;;;;;;;;;;;;;;;;;5050560;28;4625;-64
2023/04/22 02:07:13;;;;;;;;;;;;;;;;;;5051247;28;4500;-64
2023/04/22 02:09:39;;;;;;;;;;;;;;;;;;5053327;28;4588;-65
2023/04/22 02:12:04;;;;;;;;;;;;;;;;;;5050360;27;4781;-64
2023/04/22 02:14:29;;;;;;;;;;;;;;;;;;5050380;28;4469;-64
2023/04/22 02:16:55;;;;;;;;;;;;;;;;;;5055895;28;1113;-67
2023/04/22 02:19:20;;;;;;;;;;;;;;;;;;5063836;28;4650;-65
2023/04/22 02:21:45;;;;;;;;;;;;;;;;;;5055787;28;4594;-65
2023/04/22 02:24:10;;;;;;;;;;;;;;;;;;5053110;28;4771;-69
2023/04/22 02:26:36;;;;;;;;;;;;;;;;;;5058896;28;5169;-65
2023/04/22 02:29:01;;;;;;;;;;;;;;;;;;5050468;28;1120;-64
2023/04/22 02:31:26;;;;;;;;;;;;;;;;;;5058144;28;5032;-64
2023/04/22 02:33:51;;;;;;;;;;;;;;;;;;5059432;28;5123;-63
2023/04/22 02:36:17;;;;;;;;;;;;;;;;;;5056977;28;4845;-63
2023/04/22 02:38:42;;;;;;;;;;;;;;;;;;5052940;28;5107;-64
2023/04/22 02:41:07;;;;;;;;;;;;;;;;;;5058010;28;1902;-64
2023/04/22 02:43:32;;;;;;;;;;;;;;;;;;5061664;28;4405;-65
2023/04/22 02:45:58;;;;;;;;;;;;;;;;;;5053119;28;4990;-64
2023/04/22 02:48:23;;;;;;;;;;;;;;;;;;5059996;28;5505;-65
2023/04/22 02:50:48;;;;;;;;;;;;;;;;;;5060408;28;4633;-65
2023/04/22 02:53:13;;;;;;;;;;;;;;;;;;5046485;28;1388;-65
2023/04/22 02:55:39;;;;;;;;;;;;;;;;;;5056346;28;4786;-65
2023/04/22 02:58:05;;;;;;;;;;;;;;;;;;5053596;28;4924;-66
2023/04/22 03:00:30;;;;;;;;;;;;;;;;;;5054761;28;4988;-67
2023/04/22 03:02:55;;;;;;;;;;;;;;;;;;5051515;28;4614;-65
2023/04/22 03:05:21;;;;;;;;;;;;;;;;;;5053712;28;1103;-64
2023/04/22 03:07:46;;;;;;;;;;;;;;;;;;5054326;28;4453;-67
2023/04/22 03:10:11;;;;;;;;;;;;;;;;;;5056073;28;4580;-65
2023/04/22 03:12:37;;;;;;;;;;;;;;;;;;5049365;28;4769;-65
2023/04/22 03:15:02;;;;;;;;;;;;;;;;;;5056526;28;4456;-64
2023/04/22 03:17:27;;;;;;;;;;;;;;;;;;5062687;28;4411;-64
2023/04/22 03:19:52;;;;;;;;;;;;;;;;;;5066101;28;1933;-64
2023/04/22 03:22:19;;;;;;;;;;;;;;;;;;5050672;28;4536;-65
2023/04/22 03:24:45;;;;;;;;;;;;;;;;;;5048530;28;4470;-64
2023/04/22 03:27:10;;;;;;;;;;;;;;;;;;5056565;28;4628;-64
2023/04/22 03:29:35;;;;;;;;;;;;;;;;;;5054900;28;5049;-63
2023/04/22 03:32:00;;;;;;;;;;;;;;;;;;5049858;28;1014;-66
2023/04/22 03:34:26;;;;;;;;;;;;;;;;;;5051752;28;4604;-63
2023/04/22 03:36:51;;;;;;;;;;;;;;;;;;5057448;28;5300;-63
2023/04/22 03:39:16;;;;;;;;;;;;;;;;;;5058417;28;5102;-64
2023/04/22 03:41:41;;;;;;;;;;;;;;;;;;5053222;28;5133;-65
2023/04/22 03:44:07;;;;;;;;;;;;;;;;;;5054254;28;1276;-63
2023/04/22 03:46:32;;;;;;;;;;;;;;;;;;5057915;28;4561;-63
2023/04/22 03:48:57;;;;;;;;;;;;;;;;;;5052203;28;4673;-62
2023/04/22 03:51:22;;;;;;;;;;;;;;;;;;5052209;28;4489;-69
2023/04/22 03:53:48;;;;;;;;;;;;;;;;;;5049776;28;5142;-65
2023/04/22 03:56:13;;;;;;;;;;;;;;;;;;5039942;28;1097;-64
2023/04/22 03:58:38;;;;;;;;;;;;;;;;;;5059658;28;4810;-64
2023/04/22 04:01:03;;;;;;;;;;;;;;;;;;5064387;28;4506;-63
2023/04/22 04:03:29;;;;;;;;;;;;;;;;;;5051469;28;4441;-64
2023/04/22 04:05:54;;;;;;;;;;;;;;;;;;5061381;28;5268;-62
2023/04/22 04:08:19;;;;;;;;;;;;;;;;;;5060041;28;1141;-65
2023/04/22 04:10:45;;;;;;;;;;;;;;;;;;5063284;28;4946;-63
2023/04/22 04:13:10;;;;;;;;;;;;;;;;;;5055364;28;4427;-65
2023/04/22 04:15:36;;;;;;;;;;;;;;;;;;5056653;28;5178;-64
2023/04/22 04:18:01;;;;;;;;;;;;;;;;;;5050782;28;4531;-66
2023/04/22 04:20:27;;;;;;;;;;;;;;;;;;5059040;28;4505;-64
2023/04/22 04:22:52;;;;;;;;;;;;;;;;;;5067285;28;1156;-64
2023/04/22 04:25:19;;;;;;;;;;;;;;;;;;5055102;28;5034;-63
2023/04/22 04:27:45;;;;;;;;;;;;;;;;;;5053383;28;4951;-65
2023/04/22 04:30:10;;;;;;;;;;;;;;;;;;5051197;28;4589;-64
2023/04/22 04:32:36;;;;;;;;;;;;;;;;;;5056080;28;4731;-65
2023/04/22 04:35:01;;;;;;;;;;;;;;;;;;5054110;28;1112;-65
2023/04/22 04:37:27;;;;;;;;;;;;;;;;;;5056861;28;4979;-65
2023/04/22 04:39:52;;;;;;;;;;;;;;;;;;5054331;28;4962;-64
2023/04/22 04:42:18;;;;;;;;;;;;;;;;;;5058391;28;4436;-64
2023/04/22 04:44:46;;;;;;;;;;;;;;;;;;5049463;28;4809;-63
2023/04/22 04:47:11;;;;;;;;;;;;;;;;;;5052322;28;1559;-64
2023/04/22 04:49:38;;;;;;;;;;;;;;;;;;5057827;28;4984;-64
2023/04/22 04:52:04;;;;;;;;;;;;;;;;;;5053993;28;4701;-63
2023/04/22 04:54:29;;;;;;;;;;;;;;;;;;5049850;28;4695;-64
2023/04/22 04:56:56;;;;;;;;;;;;;;;;;;5045750;28;4984;-66
2023/04/22 04:59:21;;;;;;;;;;;;;;;;;;5055087;28;4825;-64
2023/04/22 05:01:46;;;;;;;;;;;;;;;;;;5056534;28;5286;-64
2023/04/22 05:04:11;;;;;;;;;;;;;;;;;;5065470;28;4585;-65
2023/04/22 05:06:37;;;;;;;;;;;;;;;;;;5065034;28;5356;-64
2023/04/22 05:09:02;;;;;;;;;;;;;;;;;;5067727;28;4454;-66
2023/04/22 05:11:27;;;;;;;;;;;;;;;;;;5061895;27;4439;-65
2023/04/22 05:13:52;;;;;;;;;;;;;;;;;;5053530;28;1225;-65
2023/04/22 05:16:18;;;;;;;;;;;;;;;;;;5064376;28;5012;-64
2023/04/22 05:18:43;;;;;;;;;;;;;;;;;;5063302;28;4595;-64
2023/04/22 05:21:08;;;;;;;;;;;;;;;;;;5065356;28;5518;-64
2023/04/22 05:23:34;;;;;;;;;;;;;;;;;;5049793;28;4645;-63
2023/04/22 05:25:59;;;;;;;;;;;;;;;;;;5053152;28;1101;-64
2023/04/22 05:28:24;;;;;;;;;;;;;;;;;;5059960;28;4953;-63
2023/04/22 05:30:50;;;;;;;;;;;;;;;;;;5055465;28;5023;-64
2023/04/22 05:33:15;;;;;;;;;;;;;;;;;;5051735;28;5100;-64
2023/04/22 05:35:40;;;;;;;;;;;;;;;;;;5061693;28;5748;-65
2023/04/22 05:38:05;;;;;;;;;;;;;;;;;;5056623;28;1256;-65
2023/04/22 05:40:31;;;;;;;;;;;;;;;;;;5055408;28;4948;-64
2023/04/22 05:42:56;;;;;;;;;;;;;;;;;;5053942;28;4607;-65
2023/04/22 05:45:21;;;;;;;;;;;;;;;;;;5062106;28;4469;-66
2023/04/22 05:47:47;;;;;;;;;;;;;;;;;;5059807;28;4585;-64
2023/04/22 05:50:12;;;;;;;;;;;;;;;;;;5051497;28;1184;-63
2023/04/22 05:52:38;;;;;;;;;;;;;;;;;;5055230;28;4657;-65
2023/04/22 05:55:03;;;;;;;;;;;;;;;;;;5040004;28;4490;-65
2023/04/22 05:57:29;;;;;;;;;;;;;;;;;;5049704;28;4972;-64
2023/04/22 05:59:54;;;;;;;;;;;;;;;;;;5062466;28;4833;-66
2023/04/22 06:02:19;;;;;;;;;;;;;;;;;;5066566;28;1247;-63
2023/04/22 06:04:44;;;;;;;;;;;;;;;;;;5061548;28;5026;-63
2023/04/22 06:07:09;;;;;;;;;;;;;;;;;;5063472;28;4595;-63
2023/04/22 06:09:35;;;;;;;;;;;;;;;;;;5058542;28;5041;-64
2023/04/22 06:12:01;;;;;;;;;;;;;;;;;;5058621;28;4650;-64
2023/04/22 06:14:26;;;;;;;;;;;;;;;;;;5057107;28;4818;-63
2023/04/22 06:16:52;;;;;;;;;;;;;;;;;;5066344;28;1316;-64
2023/04/22 06:19:18;;;;;;;;;;;;;;;;;;5054709;28;4478;-63
2023/04/22 06:21:43;;;;;;;;;;;;;;;;;;5051110;28;4435;-67
2023/04/22 06:24:09;;;;;;;;;;;;;;;;;;5039050;28;5021;-63
2023/04/22 06:26:35;;;;;;;;;;;;;;;;;;5057365;28;4552;-64
2023/04/22 06:29:01;;;;;;;;;;;;;;;;;;5050349;28;1393;-64
2023/04/22 06:31:27;;;;;;;;;;;;;;;;;;5054006;28;4616;-63
2023/04/22 06:33:52;;;;;;;;;;;;;;;;;;5059106;28;4961;-63
2023/04/22 06:36:17;;;;;;;;;;;;;;;;;;5052843;28;4801;-64
2023/04/22 06:38:42;;;;;;;;;;;;;;;;;;5055482;28;5100;-65
2023/04/22 06:41:08;;;;;;;;;;;;;;;;;;5056176;28;1980;-64
2023/04/22 06:43:33;;;;;;;;;;;;;;;;;;5060807;28;4542;-65
2023/04/22 06:45:58;;;;;;;;;;;;;;;;;;5052705;28;4724;-63
2023/04/22 06:48:23;;;;;;;;;;;;;;;;;;5058744;28;5120;-62
2023/04/22 06:50:49;;;;;;;;;;;;;;;;;;5057961;28;5035;-62
2023/04/22 06:53:14;;;;;;;;;;;;;;;;;;5042718;28;1466;-64
2023/04/22 06:55:39;;;;;;;;;;;;;;;;;;5054407;28;4985;-63
2023/04/22 06:58:04;;;;;;;;;;;;;;;;;;5064916;28;5060;-64
2023/04/22 07:00:30;;;;;;;;;;;;;;;;;;5057242;28;4913;-65
2023/04/22 07:02:55;;;;;;;;;;;;;;;;;;5063235;28;4487;-63
2023/04/22 07:05:20;;;;;;;;;;;;;;;;;;5061692;28;1220;-62
2023/04/22 07:07:46;;;;;;;;;;;;;;;;;;5081706;28;4405;-63
2023/04/22 07:10:13;;;;;;;;;;;;;;;;;;5057049;28;4587;-63
2023/04/22 07:12:38;;;;;;;;;;;;;;;;;;5059564;28;4419;-63
2023/04/22 07:15:04;;;;;;;;;;;;;;;;;;5052739;28;4476;-64
2023/04/22 07:17:29;;;;;;;;;;;;;;;;;;5050202;28;4783;-63
2023/04/22 07:19:54;;;;;;;;;;;;;;;;;;5060402;28;1981;-63
2023/04/22 07:22:20;;;;;;;;;;;;;;;;;;5049701;28;4681;-64
2023/04/22 07:24:45;;;;;;;;;;;;;;;;;;5048840;28;4442;-63
2023/04/22 07:27:10;;;;;;;;;;;;;;;;;;5056403;28;4661;-65
2023/04/22 07:29:35;;;;;;;;;;;;;;;;;;5053217;28;4992;-63
2023/04/22 07:32:01;;;;;;;;;;;;;;;;;;5046192;28;1439;-64
2023/04/22 07:34:26;;;;;;;;;;;;;;;;;;5076432;28;5142;-63
2023/04/22 07:36:52;;;;;;;;;;;;;;;;;;5054839;28;4596;-64
2023/04/22 07:39:17;;;;;;;;;;;;;;;;;;5052108;28;6156;-60
2023/04/22 07:41:42;;;;;;;;;;;;;;;;;;5054094;28;5490;-61
2023/04/22 07:44:09;;;;;;;;;;;;;;;;;;5045173;28;5515;-59
2023/04/22 07:46:34;;;;;;;;;;;;;;;;;;5047373;28;5220;-59
2023/04/22 07:48:59;;;;;;;;;;;;;;;;;;5047464;28;4972;-60
2023/04/22 07:51:25;;;;;;;;;;;;;;;;;;5048434;28;4533;-60
2023/04/22 07:53:50;;;;;;;;;;;;;;;;;;5050913;28;5025;-60
2023/04/22 07:56:15;;;;;;;;;;;;;;;;;;5045125;28;5282;-60
2023/04/22 07:58:40;;;;;;;;;;;;;;;;;;5048351;28;1221;-60
2023/04/22 08:01:06;;;;;;;;;;;;;;;;;;5045275;28;4425;-60
2023/04/22 08:03:31;;;;;;;;;;;;;;;;;;5040990;28;4893;-61
2023/04/22 08:05:57;;;;;;;;;;;;;;;;;;5073186;28;4518;-62
2023/04/22 08:08:22;;;;;;;;;;;;;;;;;;5038305;28;4667;-60
2023/04/22 08:10:47;;;;;;;;;;;;;;;;;;5034646;28;3376;-58
2023/04/22 08:13:13;;;;;;;;;;;;;;;;;;5046373;28;5397;-59
2023/04/22 08:15:38;;;;;;;;;;;;;;;;;;5040329;28;4655;-59
2023/04/22 08:18:04;;;;;;;;;;;;;;;;;;5044352;28;5316;-59
2023/04/22 08:20:29;;;;;;;;;;;;;;;;;;5070710;28;4700;-59
2023/04/22 08:22:59;;;;;;;;;;;;;;;;;;5034156;28;3335;-60
2023/04/22 08:25:24;;;;;;;;;;;;;;;;;;5036362;28;5514;-59
2023/04/22 08:27:50;;;;;;;;;;;;;;;;;;5041388;28;5062;-61
2023/04/22 08:30:15;;;;;;;;;;;;;;;;;;5045898;28;4667;-59
2023/04/22 08:32:40;;;;;;;;;;;;;;;;;;5038333;28;4458;-59
2023/04/22 08:35:06;;;;;;;;;;;;;;;;;;5037971;28;4518;-60
2023/04/22 08:37:31;;;;;;;;;;;;;;;;;;5036583;28;3358;-60
2023/04/22 08:39:57;;;;;;;;;;;;;;;;;;5059980;28;4550;-61
2023/04/22 08:42:22;;;;;;;;;;;;;;;;;;5042638;28;4721;-62
2023/04/22 08:44:47;;;;;;;;;;;;;;;;;;5072731;28;4494;-60
2023/04/22 08:47:13;;;;;;;;;;;;;;;;;;5039463;28;5442;-61
2023/04/22 08:49:39;;;;;;;;;;;;;;;;;;5045585;28;3359;-61
2023/04/22 08:52:04;;;;;;;;;;;;;;;;;;5070295;28;4586;-60
2023/04/22 08:54:31;;;;;;;;;;;;;;;;;;5041977;28;4417;-60
2023/04/22 08:56:56;;;;;;;;;;;;;;;;;;5047374;28;4689;-61
2023/04/22 08:59:22;;;;;;;;;;;;;;;;;;5071809;28;5351;-60
2023/04/22 09:01:49;;;;;;;;;;;;;;;;;;5072884;28;3622;-61
2023/04/22 09:04:14;;;;;;;;;;;;;;;;;;5045140;28;4631;-61
2023/04/22 09:06:39;;;;;;;;;;;;;;;;;;5067641;28;5065;-60
2023/04/22 09:09:05;;;;;;;;;;;;;;;;;;5039094;28;4707;-59
2023/04/22 09:11:30;;;;;;;;;;;;;;;;;;5043626;28;4457;-59
2023/04/22 09:13:56;;;;;;;;;;;;;;;;;;5041341;28;3328;-59
2023/04/22 09:16:21;;;;;;;;;;;;;;;;;;5038905;28;5029;-60
2023/04/22 09:18:46;;;;;;;;;;;;;;;;;;5043779;28;4440;-60
2023/04/22 09:21:12;;;;;;;;;;;;;;;;;;5039379;28;5092;-59
2023/04/22 09:23:48;;;;;;;;;;;;;;;;;;5029599;28;4872;-61
2023/04/22 09:26:14;;;;;;;;;;;;;;;;;;5045259;28;4493;-63
2023/04/22 09:28:46;;;;;;;;;;;;;;;;;;5040107;28;3856;-60
2023/04/22 09:31:14;;;;;;;;;;;;;;;;;;5043524;28;4430;-60
2023/04/22 09:33:40;;;;;;;;;;;;;;;;;;5044473;28;4637;-61
2023/04/22 09:36:08;;;;;;;;;;;;;;;;;;5045034;28;5104;-61
2023/04/22 09:38:34;;;;;;;;;;;;;;;;;;5045227;28;4461;-64
2023/04/22 09:40:59;;;;;;;;;;;;;;;;;;5050117;28;5048;-58
2023/04/22 09:43:24;;;;;;;;;;;;;;;;;;5052912;28;2484;-60
2023/04/22 09:45:50;;;;;;;;;;;;;;;;;;5046657;28;5146;-62
2023/04/22 09:48:16;;;;;;;;;;;;;;;;;;5047710;28;4848;-59
2023/04/22 09:50:45;;;;;;;;;;;;;;;;;;5048863;28;5036;-60
2023/04/22 09:53:12;;;;;;;;;;;;;;;;;;5045242;28;3411;-59
2023/04/22 10:07:30;;;;;;;;;;;;;;;;;;5069392;27;5418;-60
2023/04/22 10:09:55;;;;;;;;;;;;;;;;;;5040249;28;5099;-60
2023/04/22 10:12:20;;;;;;;;;;;;;;;;;;5024451;28;3304;-59
2023/04/22 10:14:45;;;;;;;;;;;;;;;;;;5035926;28;4412;-61
2023/04/22 10:17:11;;;;;;;;;;;;;;;;;;5039961;28;5183;-60
2023/04/22 10:19:36;;;;;;;;;;;;;;;;;;5052874;28;4653;-59
2023/04/22 10:22:02;;;;;;;;;;;;;;;;;;5067496;28;4484;-61
2023/04/22 10:24:28;;;;;;;;;;;;;;;;;;5037022;28;5058;-62
2023/04/22 10:26:54;;;;;;;;;;;;;;;;;;5043885;28;2126;-60
2023/04/22 10:29:19;;;;;;;;;;;;;;;;;;5052107;28;4592;-62
2023/04/22 10:31:52;;;;;;;;;;;;;;;;;;5048019;28;4973;-59
2023/04/22 10:34:17;;;;;;;;;;;;;;;;;;5040349;28;5426;-59
2023/04/22 10:37:06;;;;;;;;;;;;;;;;;;5041998;28;5076;-59
2023/04/22 10:39:31;;;;;;;;;;;;;;;;;;5029341;28;4978;-59
2023/04/22 10:42:10;;;;;;;;;;;;;;;;;;5040992;28;3475;-58
2023/04/22 10:44:44;;;;;;;;;;;;;;;;;;5031521;28;4591;-59
2023/04/22 10:47:10;;;;;;;;;;;;;;;;;;5036432;28;4515;-59
2023/04/22 10:49:35;;;;;;;;;;;;;;;;;;5038643;28;4492;-61
2023/04/22 10:52:02;;;;;;;;;;;;;;;;;;5043825;28;4497;-60
2023/04/22 10:54:28;;;;;;;;;;;;;;;;;;5044010;28;4941;-59
2023/04/22 10:57:02;;;;;;;;;;;;;;;;;;5044449;28;1910;-59
2023/04/22 10:59:28;;;;;;;;;;;;;;;;;;5037350;28;4508;-60
2023/04/22 11:01:53;;;;;;;;;;;;;;;;;;5039126;28;5161;-60
2023/04/22 11:04:19;;;;;;;;;;;;;;;;;;5044885;28;5017;-60
2023/04/22 11:06:44;;;;;;;;;;;;;;;;;;5036600;28;5117;-60
2023/04/22 11:09:10;;;;;;;;;;;;;;;;;;5021257;28;5221;-61
2023/04/22 11:11:35;;;;;;;;;;;;;;;;;;5031033;28;4654;-62
2023/04/22 11:14:00;;;;;;;;;;;;;;;;;;5030741;28;4446;-62
2023/04/22 11:16:25;;;;;;;;;;;;;;;;;;5030734;28;4794;-59
2023/04/22 11:18:51;;;;;;;;;;;;;;;;;;5030827;28;5229;-65
2023/04/22 11:21:16;;;;;;;;;;;;;;;;;;5063315;28;1115;-59
2023/04/22 11:23:48;;;;;;;;;;;;;;;;;;5030730;28;4906;-59
2023/04/22 11:26:13;;;;;;;;;;;;;;;;;;5030000;28;4654;-59
2023/04/22 11:28:44;;;;;;;;;;;;;;;;;;5030228;28;4501;-58
2023/04/22 11:31:09;;;;;;;;;;;;;;;;;;5030884;28;4498;-63
2023/04/22 11:33:35;;;;;;;;;;;;;;;;;;5030922;28;4464;-59
2023/04/22 11:36:00;;;;;;;;;;;;;;;;;;5031263;28;1967;-60
2023/04/22 11:38:26;;;;;;;;;;;;;;;;;;5030477;28;4655;-60
2023/04/22 11:40:52;;;;;;;;;;;;;;;;;;5030545;28;5156;-60
2023/04/22 11:43:17;;;;;;;;;;;;;;;;;;5028439;28;4927;-59
2023/04/22 11:45:43;;;;;;;;;;;;;;;;;;5030077;28;4665;-60
2023/04/22 11:48:08;;;;;;;;;;;;;;;;;;5023962;28;1183;-58
2023/04/22 11:50:35;;;;;;;;;;;;;;;;;;5023279;28;4888;-58
2023/04/22 11:53:04;;;;;;;;;;;;;;;;;;5030196;28;4661;-61
2023/04/22 11:55:29;;;;;;;;;;;;;;;;;;5029833;28;4632;-59
2023/04/22 11:57:55;;;;;;;;;;;;;;;;;;5029652;28;5104;-62
2023/04/22 12:00:20;;;;;;;;;;;;;;;;;;5030859;28;1170;-60
2023/04/22 12:02:55;;;;;;;;;;;;;;;;;;5026906;28;4412;-62
2023/04/22 12:05:21;;;;;;;;;;;;;;;;;;5025541;28;4617;-60
2023/04/22 12:07:49;;;;;;;;;;;;;;;;;;5052618;28;4595;-60
2023/04/22 12:10:14;;;;;;;;;;;;;;;;;;5047468;28;6594;-62
2023/04/22 12:12:39;;;;;;;;;;;;;;;;;;5016995;28;4554;-58
2023/04/22 12:15:09;;;;;;;;;;;;;;;;;;5028834;28;1971;-59
2023/04/22 12:17:34;;;;;;;;;;;;;;;;;;5029089;28;4945;-59
2023/04/22 12:20:00;;;;;;;;;;;;;;;;;;5028586;28;4451;-59
2023/04/22 12:22:25;;;;;;;;;;;;;;;;;;5014908;28;4630;-60
2023/04/22 12:24:51;;;;;;;;;;;;;;;;;;5016884;28;4605;-59
2023/04/22 12:27:16;;;;;;;;;;;;;;;;;;5030326;28;1197;-59
2023/04/22 12:29:49;;;;;;;;;;;;;;;;;;5029387;28;4424;-61
2023/04/22 12:32:14;;;;;;;;;;;;;;;;;;5029428;28;4538;-59
2023/04/22 12:34:39;;;;;;;;;;;;;;;;;;5029367;28;5072;-61
2023/04/22 12:37:04;;;;;;;;;;;;;;;;;;5027850;28;4518;-59
2023/04/22 12:39:31;;;;;;;;;;;;;;;;;;5028889;28;4480;-61
2023/04/22 12:41:56;;;;;;;;;;;;;;;;;;5029529;28;1330;-59
2023/04/22 12:44:21;;;;;;;;;;;;;;;;;;5029316;28;4822;-60
2023/04/22 12:46:47;;;;;;;;;;;;;;;;;;5029562;28;4917;-61
2023/04/22 12:49:13;;;;;;;;;;;;;;;;;;5043949;28;4987;-61
2023/04/22 12:51:38;;;;;;;;;;;;;;;;;;5028923;28;4663;-59
2023/04/22 12:54:04;;;;;;;;;;;;;;;;;;5020588;28;1139;-59
2023/04/22 12:56:29;;;;;;;;;;;;;;;;;;5025752;28;5051;-60
2023/04/22 12:58:54;;;;;;;;;;;;;;;;;;5029065;28;5072;-65
2023/04/22 13:01:20;;;;;;;;;;;;;;;;;;5026157;28;4463;-59
2023/04/22 13:03:45;;;;;;;;;;;;;;;;;;5029045;28;4486;-61
2023/04/22 13:06:10;;;;;;;;;;;;;;;;;;5024773;28;1240;-59
2023/04/22 13:08:36;;;;;;;;;;;;;;;;;;5023602;28;6565;-59
2023/04/22 13:11:01;;;;;;;;;;;;;;;;;;5035238;28;4471;-59
2023/04/22 13:13:26;;;;;;;;;;;;;;;;;;5040273;28;4543;-58
2023/04/22 13:15:52;;;;;;;;;;;;;;;;;;5029364;28;4843;-63
2023/04/22 13:18:17;;;;;;;;;;;;;;;;;;5016369;28;1187;-59
2023/04/22 13:20:43;;;;;;;;;;;;;;;;;;5010550;28;5009;-61
2023/04/22 13:23:09;;;;;;;;;;;;;;;;;;5029024;28;4574;-60
2023/04/22 13:25:35;;;;;;;;;;;;;;;;;;5037003;28;5006;-59
2023/04/22 13:28:00;;;;;;;;;;;;;;;;;;5051894;28;4493;-61
2023/04/22 13:30:25;;;;;;;;;;;;;;;;;;5028467;28;4436;-60
2023/04/22 13:32:50;;;;;;;;;;;;;;;;;;5029361;28;1103;-60
2023/04/22 13:35:17;;;;;;;;;;;;;;;;;;5028361;28;4422;-59
2023/04/22 13:37:42;;;;;;;;;;;;;;;;;;5028521;28;4471;-60
2023/04/22 13:40:08;;;;;;;;;;;;;;;;;;5027082;28;4496;-59
2023/04/22 13:42:33;;;;;;;;;;;;;;;;;;5058664;28;4481;-61
2023/04/22 13:44:58;;;;;;;;;;;;;;;;;;5027097;28;1272;-61
2023/04/22 13:47:24;;;;;;;;;;;;;;;;;;5026578;28;4459;-62
2023/04/22 13:49:49;;;;;;;;;;;;;;;;;;5026337;28;6029;-60
2023/04/22 13:52:14;;;;;;;;;;;;;;;;;;5027281;28;4654;-61
2023/04/22 13:54:40;;;;;;;;;;;;;;;;;;5027880;28;4702;-60
2023/04/22 13:57:05;;;;;;;;;;;;;;;;;;5027960;28;1941;-60
2023/04/22 13:59:30;;;;;;;;;;;;;;;;;;5028320;28;4694;-59
2023/04/22 14:01:56;;;;;;;;;;;;;;;;;;5026772;28;5016;-59
2023/04/22 14:04:21;;;;;;;;;;;;;;;;;;5024512;28;4531;-59
2023/04/22 14:06:46;;;;;;;;;;;;;;;;;;5022872;28;5050;-60
2023/04/22 14:09:11;;;;;;;;;;;;;;;;;;5011976;28;6668;-58
2023/04/22 14:11:37;;;;;;;;;;;;;;;;;;5053764;28;5199;-58
2023/04/22 14:14:02;;;;;;;;;;;;;;;;;;5028047;28;4997;-58
2023/04/22 14:16:27;;;;;;;;;;;;;;;;;;5028241;28;4882;-59
2023/04/22 14:18:54;;;;;;;;;;;;;;;;;;5026920;28;4768;-59
2023/04/22 14:21:20;;;;;;;;;;;;;;;;;;5028947;28;1262;-61
2023/04/22 14:23:45;;;;;;;;;;;;;;;;;;5015788;28;4594;-62
2023/04/22 14:26:10;;;;;;;;;;;;;;;;;;5019447;28;5079;-60
2023/04/22 14:28:36;;;;;;;;;;;;;;;;;;5026225;28;5063;-59
2023/04/22 14:31:01;;;;;;;;;;;;;;;;;;5027685;28;4463;-59
2023/04/22 14:33:26;;;;;;;;;;;;;;;;;;5026910;28;4884;-59
2023/04/22 14:35:52;;;;;;;;;;;;;;;;;;5028621;28;1914;-59
2023/04/22 14:38:17;;;;;;;;;;;;;;;;;;5027046;28;4625;-63
2023/04/22 14:40:42;;;;;;;;;;;;;;;;;;5016041;28;5053;-60
2023/04/22 14:43:07;;;;;;;;;;;;;;;;;;5030092;28;5154;-59
2023/04/22 14:45:33;;;;;;;;;;;;;;;;;;5031263;28;4966;-60
2023/04/22 14:47:58;;;;;;;;;;;;;;;;;;5032428;28;1218;-59
2023/04/22 14:50:24;;;;;;;;;;;;;;;;;;5063941;28;4736;-61
2023/04/22 14:52:50;;;;;;;;;;;;;;;;;;5030643;28;4471;-59
2023/04/22 14:55:15;;;;;;;;;;;;;;;;;;5028045;28;4591;-63
2023/04/22 14:57:41;;;;;;;;;;;;;;;;;;5063240;28;4638;-61
2023/04/22 15:00:07;;;;;;;;;;;;;;;;;;5027732;28;2382;-59
2023/04/22 15:02:32;;;;;;;;;;;;;;;;;;5023621;28;4457;-63
2023/04/22 15:04:57;;;;;;;;;;;;;;;;;;5027145;28;4653;-59
2023/04/22 15:07:22;;;;;;;;;;;;;;;;;;5023327;28;4744;-60
2023/04/22 15:09:48;;;;;;;;;;;;;;;;;;5023588;28;6565;-59
2023/04/22 15:12:13;;;;;;;;;;;;;;;;;;5025435;28;3335;-59
2023/04/22 15:14:38;;;;;;;;;;;;;;;;;;5024081;28;4944;-59
2023/04/22 15:17:04;;;;;;;;;;;;;;;;;;5022541;28;4937;-59
2023/04/22 15:19:29;;;;;;;;;;;;;;;;;;5018243;28;4615;-59
2023/04/22 15:21:54;;;;;;;;;;;;;;;;;;5030849;28;5176;-66
2023/04/22 15:24:20;;;;;;;;;;;;;;;;;;5063103;28;1116;-62
2023/04/22 15:26:46;;;;;;;;;;;;;;;;;;5026663;28;5143;-59
2023/04/22 15:29:11;;;;;;;;;;;;;;;;;;5017903;28;5205;-61
2023/04/22 15:31:36;;;;;;;;;;;;;;;;;;5024909;28;4633;-59
2023/04/22 15:34:01;;;;;;;;;;;;;;;;;;5022213;28;5109;-63
2023/04/22 15:36:27;;;;;;;;;;;;;;;;;;5017559;28;4517;-62
2023/04/22 15:38:54;;;;;;;;;;;;;;;;;;5015274;28;3414;-64
2023/04/22 15:41:20;;;;;;;;;;;;;;;;;;5014240;28;5067;-63
2023/04/22 15:43:45;;;;;;;;;;;;;;;;;;5022519;28;4649;-62
2023/04/22 15:46:10;;;;;;;;;;;;;;;;;;5017188;28;5209;-67
2023/04/22 15:48:36;;;;;;;;;;;;;;;;;;5017965;28;5070;-64
2023/04/22 15:51:01;;;;;;;;;;;;;;;;;;5024314;28;3350;-62
2023/04/22 15:53:26;;;;;;;;;;;;;;;;;;5025104;28;4719;-61
2023/04/22 15:55:51;;;;;;;;;;;;;;;;;;5026967;28;4446;-62
2023/04/22 15:58:17;;;;;;;;;;;;;;;;;;5026919;28;5026;-62
2023/04/22 16:00:42;;;;;;;;;;;;;;;;;;5022250;28;5065;-64
2023/04/22 16:03:07;;;;;;;;;;;;;;;;;;5018833;28;3326;-62
2023/04/22 16:05:33;;;;;;;;;;;;;;;;;;5024619;28;4658;-61
2023/04/22 16:07:58;;;;;;;;;;;;;;;;;;5024021;28;4641;-60
2023/04/22 16:10:25;;;;;;;;;;;;;;;;;;5016363;28;6581;-60
2023/04/22 16:12:50;;;;;;;;;;;;;;;;;;5016034;28;4698;-62
2023/04/22 16:15:16;;;;;;;;;;;;;;;;;;5016169;28;3155;-58
2023/04/22 16:17:42;;;;;;;;;;;;;;;;;;5014200;28;4860;-63
2023/04/22 16:20:08;;;;;;;;;;;;;;;;;;5021437;28;5472;-64
2023/04/22 16:22:33;;;;;;;;;;;;;;;;;;5026393;28;5240;-63
2023/04/22 16:24:59;;;;;;;;;;;;;;;;;;5021725;28;5044;-63
2023/04/22 16:27:24;;;;;;;;;;;;;;;;;;5029210;28;2810;-63
2023/04/22 16:29:49;;;;;;;;;;;;;;;;;;5017180;28;6126;-62
2023/04/22 16:32:15;;;;;;;;;;;;;;;;;;5016464;28;5145;-62
2023/04/22 16:34:40;;;;;;;;;;;;;;;;;;5054862;28;4535;-62
2023/04/22 16:37:05;;;;;;;;;;;;;;;;;;5021722;28;5177;-62
2023/04/22 16:39:31;;;;;;;;;;;;;;;;;;5026799;28;5136;-63
2023/04/22 16:41:56;;;;;;;;;;;;;;;;;;5028955;28;1237;-63
2023/04/22 16:44:21;;;;;;;;;;;;;;;;;;5028603;28;4462;-63
2023/04/22 16:46:47;;;;;;;;;;;;;;;;;;5028310;28;4636;-60
2023/04/22 16:49:12;;;;;;;;;;;;;;;;;;5025959;28;4678;-64
2023/04/22 16:51:38;;;;;;;;;;;;;;;;;;5020385;28;5001;-63
2023/04/22 16:54:04;;;;;;;;;;;;;;;;;;5023969;28;3457;-61
2023/04/22 16:56:29;;;;;;;;;;;;;;;;;;5013097;28;5118;-61
2023/04/22 16:58:54;;;;;;;;;;;;;;;;;;5022995;28;5074;-63
2023/04/22 17:01:20;;;;;;;;;;;;;;;;;;5026723;28;5216;-64
2023/04/22 17:03:45;;;;;;;;;;;;;;;;;;5025631;28;5166;-62